Terminal Aerodrome Forecast
Issued by NWS Oklahoma City, OK

Home | Current Version | Previous Version | Text Only | Print | Product List | Glossary On
Versions: 1 2 3 4 5 6 7 8 9 10 11 12 13 14 15 16 17 18 19 20 21 22 23
000
FTUS44 KOUN 252335
TAFOUN
TAF
KOUN 252335Z 2600/2624 13008KT 6SM -SHRA VCTS SCT030 BKN050CB
      TEMPO 2600/2603 4SM -RA BKN030
     FM260300 10007KT P6SM VCSH OVC040
     FM261300 02010KT 4SM -RA OVC018=

USA.gov is the U.S. government's official web portal to all federal, state and local government web resources and services.